createdAt,value
2022-12-15T00:01:12.429Z,4.00
2022-12-15T00:03:40.151Z,3.73
2022-12-15T00:06:07.616Z,2.90
2022-12-15T00:08:34.978Z,3.60
2022-12-15T00:11:03.135Z,4.07
2022-12-15T00:13:30.880Z,4.50
2022-12-15T00:15:58.622Z,4.50
2022-12-15T00:18:25.995Z,4.17
2022-12-15T00:20:58.642Z,4.50
2022-12-15T00:23:26.399Z,4.40
2022-12-15T00:25:53.950Z,3.73
2022-12-15T00:28:21.262Z,4.27
2022-12-15T00:30:49.816Z,4.50
2022-12-15T00:33:17.816Z,4.20
2022-12-15T00:35:45.400Z,4.07
2022-12-15T00:38:15.254Z,3.97
2022-12-15T00:40:42.470Z,4.07
2022-12-15T00:43:09.690Z,3.90
2022-12-15T00:45:37.083Z,3.80
2022-12-15T00:48:04.749Z,4.27
2022-12-15T00:50:32.238Z,3.83
2022-12-15T00:52:59.585Z,3.43
2022-12-15T00:55:26.842Z,3.50
2022-12-15T00:57:54.308Z,3.10
2022-12-15T01:00:22.157Z,3.60
2022-12-15T01:02:49.651Z,3.63
2022-12-15T01:05:17.082Z,3.80
2022-12-15T01:07:44.494Z,3.87
2022-12-15T01:10:18.509Z,3.73
2022-12-15T01:12:47.175Z,3.57
2022-12-15T01:15:15.202Z,2.67
2022-12-15T01:17:42.469Z,3.17
2022-12-15T01:20:13.671Z,3.30
2022-12-15T01:22:42.589Z,3.40
2022-12-15T01:25:11.642Z,3.43
2022-12-15T01:27:39.296Z,3.00
2022-12-15T01:30:10.130Z,3.63
2022-12-15T01:32:41.429Z,2.90
2022-12-15T01:35:12.047Z,2.80
2022-12-15T01:37:39.791Z,2.80
2022-12-15T01:40:09.453Z,3.37
2022-12-15T01:42:36.645Z,2.77
2022-12-15T01:45:28.949Z,2.70
2022-12-15T01:48:23.430Z,2.80
2022-12-15T01:51:03.239Z,3.20
2022-12-15T01:53:39.868Z,3.13
2022-12-15T01:56:10.205Z,2.97
2022-12-15T01:58:43.398Z,2.90
2022-12-15T02:01:11.195Z,2.90
2022-12-15T02:03:40.735Z,3.03
2022-12-15T02:06:10.201Z,3.03
2022-12-15T02:08:38.082Z,2.90
2022-12-15T02:11:59.292Z,3.10
2022-12-15T02:14:43.377Z,3.17
2022-12-15T02:17:57.839Z,2.80
2022-12-15T02:21:01.216Z,2.83
2022-12-15T02:24:10.286Z,2.73
2022-12-15T02:26:52.632Z,2.40
2022-12-15T02:30:16.167Z,2.80
2022-12-15T02:33:08.132Z,2.50
2022-12-15T02:35:57.272Z,2.60
2022-12-15T02:38:38.096Z,2.60
2022-12-15T02:41:26.806Z,2.67
2022-12-15T02:43:54.104Z,2.50
2022-12-15T02:46:46.359Z,2.90
2022-12-15T02:49:39.575Z,2.70
2022-12-15T02:52:34.667Z,2.77
2022-12-15T02:55:46.658Z,3.07
2022-12-15T02:58:49.003Z,2.90
2022-12-15T03:01:41.906Z,3.00
2022-12-15T03:04:12.790Z,3.57
2022-12-15T03:06:40.326Z,3.47
2022-12-15T03:09:07.927Z,3.77
2022-12-15T03:11:37.149Z,3.50
2022-12-15T03:14:04.447Z,3.77
2022-12-15T03:16:31.834Z,3.93
2022-12-15T03:18:59.209Z,4.23
2022-12-15T03:21:26.481Z,3.20
2022-12-15T03:23:53.875Z,4.00
2022-12-15T03:26:21.153Z,4.53
2022-12-15T03:28:48.494Z,4.03
2022-12-15T03:31:16.148Z,3.80
2022-12-15T03:33:43.496Z,4.20
2022-12-15T03:36:10.901Z,3.73
2022-12-15T03:38:38.175Z,3.60
2022-12-15T03:41:05.530Z,3.40
2022-12-15T03:43:33.156Z,3.37
2022-12-15T03:46:00.968Z,3.00
2022-12-15T03:48:28.257Z,2.97
2022-12-15T03:50:55.541Z,3.80
2022-12-15T03:53:23.061Z,3.20
2022-12-15T03:55:50.311Z,3.37
2022-12-15T03:58:17.613Z,3.07
2022-12-15T04:00:44.915Z,3.00
2022-12-15T04:03:12.263Z,3.00
2022-12-15T04:05:40.125Z,3.10
2022-12-15T04:08:07.515Z,3.13
2022-12-15T04:10:35.932Z,3.40
2022-12-15T04:13:10.282Z,3.10
2022-12-15T04:15:40.061Z,2.77
2022-12-15T04:18:10.529Z,2.90
2022-12-15T04:20:40.463Z,3.10
2022-12-15T04:23:08.209Z,3.77
2022-12-15T04:25:36.684Z,3.57
2022-12-15T04:28:05.951Z,3.20
2022-12-15T04:30:34.013Z,3.20
2022-12-15T04:33:04.949Z,6.97
2022-12-15T04:35:35.578Z,6.53
2022-12-15T04:38:03.998Z,8.47
2022-12-15T04:40:31.750Z,7.63
2022-12-15T04:42:59.330Z,7.07
2022-12-15T04:45:29.105Z,8.90
2022-12-15T04:48:00.889Z,9.43
2022-12-15T04:50:29.049Z,9.27
2022-12-15T04:52:56.462Z,9.90
2022-12-15T04:55:24.545Z,11.53
2022-12-15T04:57:52.154Z,8.37
2022-12-15T05:00:22.653Z,8.93
2022-12-15T05:02:50.016Z,8.53
2022-12-15T05:05:17.696Z,8.17
2022-12-15T05:07:44.934Z,6.67
2022-12-15T05:10:15.143Z,5.20
2022-12-15T05:12:43.829Z,6.20
2022-12-15T05:15:11.251Z,5.37
2022-12-15T05:17:41.675Z,5.80
2022-12-15T05:20:10.162Z,6.50
2022-12-15T05:22:37.397Z,6.50
2022-12-15T05:25:05.256Z,7.90
2022-12-15T05:27:32.591Z,9.30
2022-12-15T05:29:59.867Z,9.57
2022-12-15T05:32:27.133Z,10.07
2022-12-15T05:34:54.406Z,11.93
2022-12-15T05:37:21.788Z,15.40
2022-12-15T05:39:49.075Z,36.03
2022-12-15T05:42:16.384Z,19.50
2022-12-15T05:44:43.732Z,18.10
2022-12-15T05:47:12.158Z,18.10
2022-12-15T05:49:39.435Z,41.20
2022-12-15T05:52:07.108Z,12.43
2022-12-15T05:54:34.298Z,12.93
2022-12-15T05:57:01.745Z,20.17
2022-12-15T05:59:28.956Z,10.77
2022-12-15T06:01:56.382Z,8.50
2022-12-15T06:04:24.067Z,11.57
2022-12-15T06:06:51.591Z,15.40
2022-12-15T06:09:19.103Z,12.40
2022-12-15T06:11:46.508Z,13.33
2022-12-15T06:14:13.973Z,10.73
2022-12-15T06:16:51.179Z,7.87
2022-12-15T06:19:19.469Z,9.83
2022-12-15T06:21:47.276Z,10.23
2022-12-15T06:24:14.723Z,12.47
2022-12-15T06:26:42.034Z,19.37
2022-12-15T06:29:12.394Z,17.30
2022-12-15T06:31:41.602Z,9.53
2022-12-15T06:34:13.799Z,11.87
2022-12-15T06:36:42.008Z,13.97
2022-12-15T06:39:14.020Z,15.00
2022-12-15T06:41:44.647Z,12.90
2022-12-15T06:44:16.171Z,12.83
2022-12-15T06:46:43.954Z,17.10
2022-12-15T06:49:11.368Z,19.37
2022-12-15T06:51:38.870Z,16.83
2022-12-15T06:54:06.274Z,17.53
2022-12-15T06:56:35.782Z,19.47
2022-12-15T06:59:10.659Z,22.10
2022-12-15T07:01:38.108Z,19.77
2022-12-15T07:04:06.040Z,23.27
2022-12-15T07:06:37.143Z,23.10
2022-12-15T07:09:07.651Z,19.90
2022-12-15T07:11:35.659Z,21.47
2022-12-15T07:14:03.049Z,19.40
2022-12-15T07:16:31.518Z,22.90
2022-12-15T07:18:58.959Z,21.77
2022-12-15T07:21:26.380Z,20.37
2022-12-15T07:23:56.270Z,23.33
2022-12-15T07:26:25.183Z,22.80
2022-12-15T07:28:53.275Z,15.03
2022-12-15T07:31:20.962Z,17.10
2022-12-15T07:33:48.569Z,16.10
2022-12-15T07:36:16.323Z,13.40
2022-12-15T07:38:43.686Z,11.67
2022-12-15T07:41:11.047Z,11.80
2022-12-15T07:43:38.597Z,10.50
2022-12-15T07:46:07.288Z,10.83
2022-12-15T07:48:34.830Z,13.97
2022-12-15T07:51:15.238Z,16.23
2022-12-15T07:53:44.854Z,21.53
2022-12-15T07:56:12.538Z,14.53
2022-12-15T07:58:39.771Z,15.30
2022-12-15T08:01:12.225Z,16.20
2022-12-15T08:03:40.893Z,14.43
2022-12-15T08:06:12.646Z,15.17
2022-12-15T08:08:41.254Z,16.03
2022-12-15T08:11:12.468Z,16.70
2022-12-15T08:16:29.502Z,38.17
2022-12-15T08:18:56.733Z,33.63
2022-12-15T08:21:24.878Z,23.33
2022-12-15T08:23:52.319Z,20.00
2022-12-15T08:26:30.889Z,20.20
2022-12-15T08:29:24.491Z,18.17
2022-12-15T08:31:52.165Z,16.53
2022-12-15T08:34:20.067Z,19.80
2022-12-15T08:36:47.371Z,28.67
2022-12-15T08:39:15.027Z,24.30
2022-12-15T08:41:42.262Z,17.47
2022-12-15T08:44:09.708Z,21.70
2022-12-15T08:46:37.046Z,16.33
2022-12-15T08:49:04.709Z,13.43
2022-12-15T08:51:33.170Z,13.27
2022-12-15T08:54:01.496Z,22.33
2022-12-15T08:56:30.086Z,25.23
2022-12-15T08:59:02.117Z,19.53
2022-12-15T09:01:32.103Z,18.63
2022-12-15T09:04:00.062Z,12.67
2022-12-15T09:06:34.425Z,10.07
2022-12-15T09:09:06.567Z,12.40
2022-12-15T09:11:34.942Z,11.70
2022-12-15T09:14:02.575Z,10.67
2022-12-15T09:16:30.110Z,9.63
2022-12-15T09:19:00.250Z,9.40
2022-12-15T09:21:30.490Z,10.20
2022-12-15T09:24:01.245Z,8.07
2022-12-15T09:26:33.351Z,8.00
2022-12-15T09:29:01.671Z,8.40
2022-12-15T09:31:32.471Z,7.27
2022-12-15T09:34:01.207Z,10.00
2022-12-15T09:36:30.067Z,11.60
2022-12-15T09:38:57.363Z,17.27
2022-12-15T09:41:30.516Z,22.83
2022-12-15T09:44:06.712Z,15.03
2022-12-15T09:47:22.188Z,17.70
2022-12-15T09:49:57.207Z,16.13
2022-12-15T09:52:46.204Z,14.47
2022-12-15T09:55:25.376Z,14.73
2022-12-15T09:58:10.973Z,11.60
2022-12-15T10:00:55.450Z,11.00
2022-12-15T10:03:51.392Z,10.33
2022-12-15T10:06:43.627Z,7.30
2022-12-15T10:09:27.204Z,7.37
2022-12-15T10:12:02.429Z,7.80
2022-12-15T10:15:07.772Z,5.63
2022-12-15T10:17:55.440Z,4.83
2022-12-15T10:20:26.515Z,7.90
2022-12-15T10:22:57.179Z,7.00
2022-12-15T10:25:31.872Z,6.53
2022-12-15T10:28:17.123Z,6.97
2022-12-15T10:30:58.625Z,7.93
2022-12-15T10:33:36.278Z,8.43
2022-12-15T10:36:14.630Z,12.13
2022-12-15T10:38:46.034Z,6.40
2022-12-15T10:41:24.997Z,6.13
2022-12-15T10:46:45.473Z,11.60
2022-12-15T10:49:22.819Z,11.57
2022-12-15T10:51:58.102Z,9.37
2022-12-15T10:54:34.686Z,7.10
2022-12-15T10:57:21.544Z,7.67
2022-12-15T10:59:50.336Z,7.20
2022-12-15T11:02:30.248Z,8.23
2022-12-15T11:05:15.216Z,7.93
2022-12-15T11:07:56.383Z,7.67
2022-12-15T11:10:31.361Z,9.47
2022-12-15T11:13:18.363Z,7.50
2022-12-15T11:15:50.758Z,9.13
2022-12-15T11:18:18.122Z,9.37
2022-12-15T11:21:04.806Z,9.73
2022-12-15T11:24:05.498Z,7.30
2022-12-15T11:26:53.660Z,7.70
2022-12-15T11:29:50.218Z,7.20
2022-12-15T11:32:25.716Z,7.53
2022-12-15T11:34:53.285Z,7.77
2022-12-15T11:37:42.256Z,7.03
2022-12-15T11:40:34.938Z,7.77
2022-12-15T11:43:37.504Z,10.57
2022-12-15T11:46:24.987Z,10.37
2022-12-15T11:49:11.001Z,8.73
2022-12-15T11:52:17.542Z,6.60
2022-12-15T11:54:55.142Z,6.83
2022-12-15T11:57:53.144Z,5.90
2022-12-15T12:00:22.460Z,4.60
2022-12-15T12:03:07.507Z,6.57
2022-12-15T12:06:08.700Z,10.10
2022-12-15T12:08:56.193Z,11.10
2022-12-15T12:11:42.873Z,9.03
2022-12-15T12:14:54.665Z,6.40
2022-12-15T12:17:51.751Z,7.57
2022-12-15T12:20:25.933Z,8.07
2022-12-15T12:23:04.645Z,10.93
2022-12-15T12:25:43.286Z,11.23
2022-12-15T12:28:25.572Z,9.47
2022-12-15T12:30:57.715Z,8.90
2022-12-15T12:33:52.416Z,10.20
2022-12-15T12:36:19.908Z,10.53
2022-12-15T12:38:57.856Z,9.50
2022-12-15T12:41:45.034Z,8.60
2022-12-15T12:44:28.775Z,8.73
2022-12-15T12:46:59.153Z,9.23
2022-12-15T12:49:37.898Z,11.33
2022-12-15T12:52:34.568Z,12.00
2022-12-15T12:55:40.731Z,12.57
2022-12-15T12:58:38.591Z,11.20
2022-12-15T13:01:12.065Z,10.67
2022-12-15T13:03:42.516Z,18.00
2022-12-15T13:06:36.663Z,12.63
2022-12-15T13:09:19.161Z,11.53
2022-12-15T13:11:49.437Z,11.07
2022-12-15T13:14:41.008Z,11.30
2022-12-15T13:17:38.896Z,14.13
2022-12-15T13:20:19.644Z,14.93
2022-12-15T13:22:47.238Z,15.20
2022-12-15T13:25:38.812Z,13.70
2022-12-15T13:28:26.535Z,10.33
2022-12-15T13:31:18.508Z,10.27
2022-12-15T13:33:51.931Z,10.30
2022-12-15T13:36:37.750Z,10.63
2022-12-15T13:39:17.197Z,9.97
2022-12-15T13:42:23.868Z,9.17
2022-12-15T13:44:52.096Z,10.10
2022-12-15T13:47:29.424Z,9.30
2022-12-15T13:50:32.850Z,10.43
2022-12-15T13:53:30.571Z,15.43
2022-12-15T13:56:11.857Z,16.30
2022-12-15T13:58:50.875Z,10.00
2022-12-15T14:01:33.195Z,6.93
2022-12-15T14:04:13.370Z,6.47
2022-12-15T14:07:06.259Z,7.77
2022-12-15T14:09:39.332Z,8.10
2022-12-15T14:12:13.732Z,6.13
2022-12-15T14:14:49.323Z,6.30
2022-12-15T14:17:19.111Z,4.23
2022-12-15T14:19:50.918Z,4.00
2022-12-15T14:22:29.907Z,4.60
2022-12-15T14:25:30.757Z,5.10
2022-12-15T14:27:58.206Z,6.27
2022-12-15T14:30:31.833Z,6.03
2022-12-15T14:33:04.932Z,6.23
2022-12-15T14:35:49.414Z,4.30
2022-12-15T14:38:38.540Z,3.60
2022-12-15T14:41:07.256Z,2.30
2022-12-15T14:43:40.006Z,2.10
2022-12-15T14:46:15.359Z,1.90
2022-12-15T14:49:09.026Z,1.87
2022-12-15T14:51:46.644Z,2.63
2022-12-15T14:54:39.670Z,2.20
2022-12-15T14:57:15.151Z,2.50
2022-12-15T14:59:45.965Z,2.60
2022-12-15T15:02:26.198Z,3.47
2022-12-15T15:03:12.380Z,6.47
2022-12-15T15:05:03.601Z,3.40
2022-12-15T15:07:34.336Z,4.37
2022-12-15T15:10:05.149Z,4.37
2022-12-15T15:12:46.122Z,5.20
2022-12-15T15:15:25.035Z,6.40
2022-12-15T15:17:59.408Z,4.93
2022-12-15T15:20:34.271Z,3.93
2022-12-15T15:23:17.442Z,4.10
2022-12-15T15:26:05.869Z,3.90
2022-12-15T15:28:41.054Z,5.23
2022-12-15T15:31:30.219Z,4.30
2022-12-15T15:34:00.431Z,3.63
2022-12-15T15:36:38.619Z,7.77
2022-12-15T15:39:16.262Z,8.10
2022-12-15T15:41:43.507Z,6.40
2022-12-15T15:44:15.739Z,6.87
2022-12-15T15:46:51.160Z,6.43
2022-12-15T15:49:21.581Z,4.03
2022-12-15T15:51:49.260Z,4.30
2022-12-15T15:54:25.061Z,4.37
2022-12-15T15:56:52.294Z,6.53
2022-12-15T15:59:21.658Z,9.90
2022-12-15T16:01:58.172Z,7.27
2022-12-15T16:04:26.067Z,3.90
2022-12-15T16:06:54.075Z,2.80
2022-12-15T16:09:21.728Z,3.20
2022-12-15T16:11:49.363Z,2.37
2022-12-15T16:14:18.596Z,2.53
2022-12-15T16:16:46.309Z,2.90
2022-12-15T16:19:13.456Z,2.43
2022-12-15T16:21:42.923Z,4.20
2022-12-15T16:24:18.676Z,3.23
2022-12-15T16:26:50.516Z,2.30
2022-12-15T16:29:20.798Z,6.83
2022-12-15T16:31:48.347Z,5.50
2022-12-15T16:34:16.624Z,4.00
2022-12-15T16:36:45.336Z,2.07
2022-12-15T16:39:35.824Z,2.67
2022-12-15T16:42:03.597Z,4.30
2022-12-15T16:44:31.035Z,2.60
2022-12-15T16:46:58.623Z,2.70
2022-12-15T16:49:26.012Z,9.93
2022-12-15T16:51:54.279Z,4.30
2022-12-15T16:54:26.841Z,5.40
2022-12-15T16:56:56.551Z,4.27
2022-12-15T16:59:34.702Z,8.13
2022-12-15T17:02:27.879Z,7.87
2022-12-15T17:04:55.987Z,5.00
2022-12-15T17:07:27.478Z,2.87
2022-12-15T17:09:56.041Z,2.83
2022-12-15T17:12:23.617Z,3.30
2022-12-15T17:14:50.846Z,2.23
2022-12-15T17:17:20.114Z,2.53
2022-12-15T17:20:19.758Z,3.90
2022-12-15T17:22:34.735Z,2.50
2022-12-15T17:25:02.028Z,3.10
2022-12-15T17:27:30.353Z,2.53
2022-12-15T17:30:00.495Z,2.80
2022-12-15T17:32:27.688Z,2.40
2022-12-15T17:34:55.059Z,2.93
2022-12-15T17:37:22.631Z,5.07
2022-12-15T17:39:49.888Z,4.00
2022-12-15T17:42:20.511Z,3.47
2022-12-15T17:44:49.240Z,9.13
2022-12-15T17:47:19.078Z,6.90
2022-12-15T17:49:46.640Z,4.30
2022-12-15T17:52:26.620Z,2.97
2022-12-15T17:54:55.177Z,3.80
2022-12-15T17:57:22.553Z,2.87
2022-12-15T17:59:49.769Z,2.43
2022-12-15T18:02:17.181Z,2.27
2022-12-15T18:04:45.387Z,2.30
2022-12-15T18:07:22.771Z,10.00
2022-12-15T18:09:54.079Z,6.23
2022-12-15T18:12:40.191Z,4.10
2022-12-15T18:15:21.124Z,2.30
2022-12-15T18:17:50.645Z,2.30
2022-12-15T18:20:18.673Z,2.40
2022-12-15T18:22:49.146Z,2.10
2022-12-15T18:25:26.257Z,2.70
2022-12-15T18:27:59.340Z,3.50
2022-12-15T18:30:27.884Z,3.90
2022-12-15T18:32:58.926Z,2.80
2022-12-15T18:35:40.803Z,2.77
2022-12-15T18:38:18.925Z,3.40
2022-12-15T18:40:57.015Z,4.43
2022-12-15T18:43:32.879Z,5.13
2022-12-15T18:46:02.736Z,4.80
2022-12-15T18:48:35.183Z,5.50
2022-12-15T18:51:19.975Z,6.37
2022-12-15T18:53:49.082Z,6.30
2022-12-15T18:56:18.427Z,6.03
2022-12-15T18:58:45.953Z,6.33
2022-12-15T19:01:13.552Z,7.00
2022-12-15T19:03:41.002Z,9.43
2022-12-15T19:06:26.202Z,11.37
2022-12-15T19:08:53.672Z,12.67
2022-12-15T19:11:29.472Z,8.20
2022-12-15T19:14:01.243Z,8.07
2022-12-15T19:16:30.238Z,6.67
2022-12-15T19:18:57.413Z,6.20
2022-12-15T19:21:33.779Z,5.73
2022-12-15T19:24:01.220Z,6.73
2022-12-15T19:26:28.448Z,8.07
2022-12-15T19:28:55.971Z,8.23
2022-12-15T19:31:23.216Z,8.63
2022-12-15T19:33:50.917Z,6.90
2022-12-15T19:36:24.183Z,5.90
2022-12-15T19:38:54.982Z,6.33
2022-12-15T19:41:22.212Z,6.20
2022-12-15T19:43:49.419Z,6.00
2022-12-15T19:46:20.436Z,6.47
2022-12-15T19:48:48.650Z,7.17
2022-12-15T19:51:20.349Z,6.73
2022-12-15T19:53:49.130Z,6.37
2022-12-15T19:56:22.374Z,5.87
2022-12-15T19:58:49.940Z,6.57
2022-12-15T20:01:19.856Z,5.67
2022-12-15T20:03:52.736Z,5.87
2022-12-15T20:06:25.862Z,6.47
2022-12-15T20:08:56.245Z,6.60
2022-12-15T20:11:30.614Z,5.60
2022-12-15T20:13:58.421Z,6.30
2022-12-15T20:16:25.686Z,6.33
2022-12-15T20:18:55.552Z,5.90
2022-12-15T20:21:30.877Z,6.07
2022-12-15T20:24:09.053Z,6.30
2022-12-15T20:26:38.443Z,7.50
2022-12-15T20:29:24.190Z,6.80
2022-12-15T20:31:52.011Z,5.40
2022-12-15T20:34:19.504Z,5.00
2022-12-15T20:36:46.809Z,4.90
2022-12-15T20:39:28.313Z,4.97
2022-12-15T20:41:56.571Z,4.90
2022-12-15T20:44:24.195Z,5.43
2022-12-15T20:46:51.757Z,4.97
2022-12-15T20:49:22.416Z,5.03
2022-12-15T20:51:50.035Z,5.10
2022-12-15T20:54:21.699Z,5.33
2022-12-15T20:56:49.940Z,5.20
2022-12-15T20:59:17.905Z,5.00
2022-12-15T21:01:45.754Z,5.00
2022-12-15T21:04:30.551Z,5.77
2022-12-15T21:06:57.927Z,7.00
2022-12-15T21:09:25.230Z,7.73
2022-12-15T21:11:53.392Z,7.77
2022-12-15T21:14:24.195Z,7.13
2022-12-15T21:16:52.263Z,6.93
2022-12-15T21:19:21.177Z,7.50
2022-12-15T21:21:55.058Z,6.70
2022-12-15T21:24:28.863Z,7.93
2022-12-15T21:26:56.281Z,6.30
2022-12-15T21:29:27.704Z,6.47
2022-12-15T21:31:54.933Z,6.40
2022-12-15T21:34:22.069Z,5.33
2022-12-15T21:36:55.338Z,5.73
2022-12-15T21:39:29.949Z,5.67
2022-12-15T21:42:14.415Z,6.03
2022-12-15T21:44:42.022Z,5.80
2022-12-15T21:47:28.629Z,5.77
2022-12-15T21:49:55.809Z,5.73
2022-12-15T21:52:26.974Z,5.20
2022-12-15T21:54:54.132Z,4.67
2022-12-15T21:57:21.920Z,4.97
2022-12-15T21:59:49.097Z,5.33
2022-12-15T22:02:27.136Z,5.00
2022-12-15T22:04:54.986Z,5.50
2022-12-15T22:07:22.438Z,5.57
2022-12-15T22:09:49.650Z,5.60
2022-12-15T22:12:23.437Z,5.53
2022-12-15T22:14:51.712Z,5.50
2022-12-15T22:17:21.896Z,6.10
2022-12-15T22:19:49.174Z,5.80
2022-12-15T22:22:16.401Z,6.77
2022-12-15T22:24:43.985Z,6.00
2022-12-15T22:27:21.122Z,5.83
2022-12-15T22:29:50.131Z,5.90
2022-12-15T22:32:17.717Z,6.17
2022-12-15T22:34:45.313Z,6.63
2022-12-15T22:37:12.638Z,5.33
2022-12-15T22:39:39.891Z,5.27
2022-12-15T22:42:08.046Z,6.30
2022-12-15T22:44:37.871Z,5.60
2022-12-15T22:47:06.614Z,7.40
2022-12-15T22:49:40.469Z,6.13
2022-12-15T22:52:19.705Z,5.17
2022-12-15T22:54:47.730Z,5.40
2022-12-15T22:57:24.369Z,4.97
2022-12-15T23:00:02.865Z,5.33
2022-12-15T23:02:36.676Z,5.27
2022-12-15T23:05:06.061Z,5.30
2022-12-15T23:07:34.693Z,4.80
2022-12-15T23:10:02.379Z,5.63
2022-12-15T23:12:29.509Z,5.27
2022-12-15T23:14:56.711Z,5.67
2022-12-15T23:17:23.938Z,6.40
2022-12-15T23:19:51.486Z,6.60
2022-12-15T23:22:18.719Z,6.27
2022-12-15T23:24:45.884Z,7.37
2022-12-15T23:27:13.148Z,6.83
2022-12-15T23:29:40.370Z,7.57
2022-12-15T23:32:07.622Z,7.30
2022-12-15T23:34:35.550Z,6.87
2022-12-15T23:37:02.975Z,6.87
2022-12-15T23:39:30.157Z,6.53
2022-12-15T23:41:57.360Z,7.17
2022-12-15T23:44:24.618Z,6.53
2022-12-15T23:46:51.882Z,7.17
2022-12-15T23:49:19.062Z,6.70
2022-12-15T23:51:46.228Z,7.03
2022-12-15T23:54:15.277Z,7.07
2022-12-15T23:56:42.624Z,6.50
2022-12-15T23:59:10.145Z,6.87
